Time;durP1;ratioP1;P1;durP2;ratioP2;P2;SDS_P1;SDS_P2;PMS_P1;PMS_P2;Temp;Humidity;BMP_temperature;BMP_pressure;BME280_temperature;BME280_humidity;BME280_pressure;Samples;Min_cycle;Max_cycle;Signal;HPM_P1;HPM_P2
2023/06/04 00:02:24;;;;;;;1.80;1.53;;;17.50;54.00;;;20.29;40.05;102197.44;5056382;28;20198;-67
2023/06/04 00:04:51;;;;;;;2.97;1.73;;;17.50;54.00;;;20.27;39.58;102189.63;5055097;28;20301;-66
2023/06/04 00:07:20;;;;;;;3.10;2.00;;;17.50;54.10;;;20.24;40.18;102190.03;5055791;28;20193;-66
2023/06/04 00:09:47;;;;;;;4.30;2.30;;;17.50;54.10;;;20.20;39.90;102194.94;5056025;28;20266;-66
2023/06/04 00:12:15;;;;;;;2.80;1.90;;;17.50;54.20;;;20.16;39.84;102188.31;5056227;28;20716;-66
2023/06/04 00:14:42;;;;;;;2.20;1.87;;;17.40;54.10;;;20.09;40.09;102187.47;5047554;28;20211;-66
2023/06/04 00:17:10;;;;;;;2.27;1.70;;;17.40;54.50;;;20.06;40.19;102187.88;5046309;28;20272;-66
2023/06/04 00:19:39;;;;;;;2.70;1.70;;;17.40;54.50;;;20.02;40.36;102189.31;5055450;28;20267;-66
2023/06/04 00:22:07;;;;;;;4.73;2.40;;;17.30;54.60;;;19.97;40.34;102181.06;5055595;28;20658;-67
2023/06/04 00:24:38;;;;;;;5.43;2.10;;;17.30;54.60;;;19.92;40.39;102180.03;5054942;28;20310;-67
2023/06/04 00:27:07;;;;;;;2.33;2.00;;;17.20;54.80;;;19.88;40.56;102174.25;5055763;28;20193;-66
2023/06/04 00:29:34;;;;;;;4.53;1.73;;;17.20;54.80;;;19.86;40.44;102176.31;5055012;28;20991;-66
2023/06/04 00:32:01;;;;;;;2.20;1.93;;;17.10;55.50;;;19.86;40.40;102181.66;5055537;28;20663;-66
2023/06/04 00:34:28;;;;;;;1.83;1.73;;;17.10;55.10;;;19.87;40.50;102177.13;5053563;28;20210;-66
2023/06/04 00:36:55;;;;;;;2.57;2.37;;;17.10;55.20;;;19.86;40.61;102181.66;5055784;28;20671;-65
2023/06/04 00:39:22;;;;;;;3.50;2.10;;;17.10;55.30;;;19.85;40.75;102181.88;5055491;28;20694;-66
2023/06/04 00:41:50;;;;;;;2.33;1.73;;;17.10;55.30;;;19.87;40.75;102182.47;5055290;28;20284;-67
2023/06/04 00:44:17;;;;;;;2.17;1.70;;;17.10;55.20;;;19.86;40.43;102186.16;5055003;28;20644;-66
2023/06/04 00:46:45;;;;;;;3.30;2.03;;;17.10;55.30;;;19.85;40.60;102179.19;5055391;28;20205;-64
2023/06/04 00:49:12;;;;;;;3.60;1.93;;;17.10;55.10;;;19.82;40.44;102180.41;5054855;28;20194;-66
2023/06/04 00:51:40;;;;;;;2.03;1.77;;;17.00;55.30;;;19.79;40.46;102183.47;5039025;28;20220;-68
2023/06/04 00:54:08;;;;;;;2.63;2.43;;;17.00;55.40;;;19.77;40.94;102182.03;5053851;28;20197;-66
2023/06/04 00:56:37;;;;;;;2.67;1.77;;;17.00;55.50;;;19.75;40.79;102184.91;5054286;28;20642;-65
2023/06/04 00:59:07;;;;;;;2.77;1.60;;;17.00;55.60;;;19.73;40.82;102180.78;5054908;28;20190;-66
2023/06/04 01:01:42;;;;;;;3.60;1.70;;;17.00;55.40;;;19.67;40.79;102185.06;5054522;28;20220;-66
2023/06/04 01:04:17;;;;;;;4.47;1.90;;;17.00;55.60;;;19.66;41.03;102180.72;5053617;28;20205;-66
2023/06/04 01:06:50;;;;;;;3.50;1.80;;;17.00;55.70;;;19.64;41.06;102177.44;5054634;28;20174;-66
2023/06/04 01:09:18;;;;;;;2.33;1.70;;;17.00;55.70;;;19.64;40.77;102185.47;5054722;28;20218;-67
2023/06/04 01:11:45;;;;;;;2.53;1.87;;;16.90;55.50;;;19.64;40.91;102184.63;5053942;28;20306;-67
2023/06/04 01:14:13;;;;;;;1.97;1.60;;;16.90;55.60;;;19.64;40.81;102188.13;5050351;28;20651;-66
2023/06/04 01:16:48;;;;;;;2.07;1.57;;;16.90;55.60;;;19.63;40.93;102186.50;5036983;28;20202;-66
2023/06/04 01:19:47;;;;;;;3.50;1.53;;;16.90;55.60;;;19.58;40.96;102188.94;5054859;28;20550;-66
2023/06/04 01:22:31;;;;;;;2.13;1.57;;;16.90;55.60;;;19.55;40.97;102175.97;5054555;28;20566;-68
2023/06/04 01:25:04;;;;;;;2.60;1.50;;;16.90;55.40;;;19.54;41.07;102176.97;5054084;28;20267;-64
2023/06/04 01:27:32;;;;;;;2.03;1.70;;;16.80;55.70;;;19.54;41.05;102184.97;5054470;28;20194;-65
2023/06/04 01:30:00;;;;;;;3.13;1.60;;;16.80;55.80;;;19.51;40.97;102177.38;5054681;28;20236;-66
2023/06/04 01:32:29;;;;;;;3.27;1.50;;;16.80;55.70;;;19.46;41.20;102174.47;5053962;28;20189;-66
2023/06/04 01:34:56;;;;;;;2.03;1.47;;;16.70;55.80;;;19.41;41.29;102171.56;5052408;28;20240;-66
2023/06/04 01:37:23;;;;;;;2.60;1.60;;;16.70;56.00;;;19.39;41.38;102173.63;5054479;28;20601;-65
2023/06/04 01:39:50;;;;;;;2.40;1.93;;;16.70;56.10;;;19.37;41.31;102181.00;5053667;28;20190;-67
2023/06/04 01:42:17;;;;;;;2.47;1.50;;;16.70;56.20;;;19.34;41.53;102187.53;5034554;28;20241;-65
2023/06/04 01:44:44;;;;;;;3.90;3.60;;;16.70;56.20;;;19.33;41.49;102188.53;5033725;28;20234;-64
2023/06/04 01:47:13;;;;;;;2.77;2.30;;;16.60;56.30;;;19.33;41.43;102177.03;5034332;28;20190;-67
2023/06/04 01:49:40;;;;;;;1.70;1.60;;;16.70;56.20;;;19.31;41.29;102179.06;5034116;28;20194;-67
2023/06/04 01:52:07;;;;;;;2.77;1.77;;;16.60;56.20;;;19.32;41.53;102183.41;5034616;28;20231;-66
2023/06/04 01:54:35;;;;;;;2.13;1.93;;;16.60;56.30;;;19.32;41.47;102178.06;5033728;28;20210;-66
2023/06/04 01:57:03;;;;;;;4.50;1.73;;;16.60;56.30;;;19.34;41.38;102186.72;5052674;28;20202;-65
2023/06/04 01:59:31;;;;;;;2.63;1.67;;;16.60;56.50;;;19.36;41.54;102182.03;5054039;28;20252;-66
2023/06/04 02:01:58;;;;;;;2.00;1.80;;;16.60;56.60;;;19.38;41.40;102178.13;5053809;28;20202;-67
2023/06/04 02:04:27;;;;;;;2.17;1.70;;;16.60;56.60;;;19.40;41.23;102185.94;5048521;28;20241;-65
2023/06/04 02:06:55;;;;;;;1.90;1.43;;;16.60;56.50;;;19.41;41.41;102174.25;5037200;28;20670;-66
2023/06/04 02:09:23;;;;;;;2.23;1.50;;;16.70;56.50;;;19.39;41.53;102176.28;5053727;28;20225;-65
2023/06/04 02:11:49;;;;;;;2.63;1.60;;;16.70;56.50;;;19.38;41.32;102177.31;5053576;28;20265;-65
2023/06/04 02:14:16;;;;;;;2.23;1.60;;;16.70;56.30;;;19.35;41.24;102180.34;5048764;28;20248;-66
2023/06/04 02:16:43;;;;;;;2.67;1.80;;;16.70;56.40;;;19.35;41.36;102175.00;5034459;28;20269;-66
2023/06/04 02:19:12;;;;;;;3.03;1.50;;;16.60;56.40;;;19.33;41.45;102179.69;5035442;28;20243;-65
2023/06/04 02:21:41;;;;;;;2.90;1.60;;;16.60;56.30;;;19.31;41.40;102182.59;5034756;28;20199;-65
2023/06/04 02:24:08;;;;;;;2.33;1.50;;;16.60;56.60;;;19.29;41.46;102178.44;5041580;28;20679;-65
2023/06/04 02:26:35;;;;;;;2.10;1.90;;;16.60;56.50;;;19.26;41.27;102174.34;5049894;28;20201;-66
2023/06/04 02:29:02;;;;;;;1.93;1.47;;;16.60;56.40;;;19.24;41.58;102172.88;5055311;28;20189;-66
2023/06/04 02:31:29;;;;;;;1.90;1.70;;;16.50;56.60;;;19.22;41.62;102174.91;5055863;28;20221;-66
2023/06/04 02:33:56;;;;;;;2.10;1.60;;;16.50;56.70;;;19.18;41.37;102168.34;5055094;28;20190;-66
2023/06/04 02:36:23;;;;;;;1.70;1.50;;;16.50;57.20;;;19.13;41.70;102168.09;5052627;28;20203;-66
2023/06/04 02:38:52;;;;;;;1.87;1.67;;;16.40;56.80;;;19.11;41.80;102170.13;5036494;28;20210;-66
2023/06/04 02:41:19;;;;;;;1.93;1.70;;;16.40;56.90;;;19.07;41.95;102174.19;5041564;28;20190;-67
2023/06/04 02:43:46;;;;;;;3.47;1.83;;;16.40;57.10;;;19.05;41.97;102181.56;5035485;28;20248;-66
2023/06/04 02:46:13;;;;;;;3.90;2.00;;;16.40;57.20;;;19.04;42.14;102179.94;5035786;28;20289;-67
2023/06/04 02:48:40;;;;;;;3.27;2.57;;;16.40;57.30;;;19.03;41.65;102178.28;5034305;28;20244;-67
2023/06/04 02:51:10;;;;;;;2.20;1.57;;;16.30;56.80;;;18.97;41.59;102176.41;5033378;28;20225;-67
2023/06/04 02:53:37;;;;;;;2.30;1.87;;;16.20;56.80;;;18.89;41.50;102178.19;5033140;28;20187;-66
2023/06/04 02:56:06;;;;;;;2.90;2.20;;;16.20;56.90;;;18.78;41.76;102181.38;5044296;28;20228;-66
2023/06/04 02:58:39;;;;;;;3.60;1.90;;;16.00;57.20;;;18.70;42.16;102184.19;5043372;28;20290;-66
2023/06/04 03:01:06;;;;;;;3.00;2.10;;;16.00;57.50;;;18.63;42.27;102177.97;5038484;28;20239;-65
2023/06/04 03:03:35;;;;;;;3.73;2.40;;;15.90;57.80;;;18.60;42.06;102180.19;5052825;28;20201;-66
2023/06/04 03:06:04;;;;;;;3.03;1.83;;;15.80;57.80;;;18.52;42.38;102191.81;5053059;28;20210;-65
2023/06/04 03:08:31;;;;;;;3.97;2.50;;;15.80;57.90;;;18.46;42.21;102186.41;5052704;28;20540;-66
2023/06/04 03:10:58;;;;;;;2.90;2.00;;;15.70;57.90;;;18.38;42.30;102195.31;5053273;28;20198;-66
2023/06/04 03:13:26;;;;;;;3.20;2.23;;;15.60;58.20;;;18.29;42.52;102193.81;5052288;28;20193;-67
2023/06/04 03:15:55;;;;;;;6.47;2.30;;;15.50;58.40;;;18.21;42.80;102194.75;5052851;28;20701;-66
2023/06/04 03:18:22;;;;;;;2.23;1.93;;;15.40;58.60;;;18.14;43.04;102193.00;5052810;28;20190;-65
2023/06/04 03:20:49;;;;;;;3.03;2.30;;;15.40;59.00;;;18.06;42.91;102193.13;5052988;28;20577;-66
2023/06/04 03:23:16;;;;;;;2.37;1.93;;;15.30;59.10;;;18.00;43.15;102185.88;5052633;28;20662;-66
2023/06/04 03:25:44;;;;;;;3.10;1.80;;;15.20;59.50;;;17.96;43.81;102189.94;5050064;28;20229;-66
2023/06/04 03:28:11;;;;;;;4.53;2.20;;;15.10;59.90;;;17.97;44.16;102180.94;5033117;28;20277;-64
2023/06/04 03:30:40;;;;;;;2.00;1.40;;;15.10;60.20;;;18.00;44.41;102180.56;5033399;28;20201;-66
2023/06/04 03:33:07;;;;;;;3.77;1.77;;;15.20;60.70;;;18.07;44.35;102189.44;5033131;28;20201;-66
2023/06/04 03:35:34;;;;;;;4.10;2.30;;;15.20;60.70;;;18.14;43.86;102185.00;5036798;28;20679;-66
2023/06/04 03:38:01;;;;;;;3.90;2.70;;;15.30;60.30;;;18.13;43.86;102186.03;5036627;28;20225;-67
2023/06/04 03:40:28;;;;;;;4.40;2.50;;;15.30;60.10;;;18.11;43.76;102196.06;5041926;28;20543;-66
2023/06/04 03:42:55;;;;;;;2.77;2.13;;;15.30;60.20;;;18.05;43.47;102194.13;5055840;28;20247;-66
2023/06/04 03:45:22;;;;;;;2.53;1.57;;;15.20;60.20;;;18.01;43.97;102188.38;5056530;28;20258;-66
2023/06/04 03:47:50;;;;;;;3.23;2.13;;;15.20;60.60;;;18.02;44.50;102189.19;5056635;28;20229;-66
2023/06/04 03:50:18;;;;;;;2.80;1.90;;;15.20;61.20;;;18.06;44.39;102182.47;5056285;28;20189;-65
2023/06/04 03:52:45;;;;;;;3.90;1.83;;;15.30;61.40;;;18.14;44.65;102185.00;5056266;28;20216;-65
2023/06/04 03:55:12;;;;;;;2.57;1.50;;;15.30;61.40;;;18.22;44.57;102190.25;5050682;28;20221;-66
2023/06/04 03:57:39;;;;;;;2.90;1.83;;;15.40;62.00;;;18.30;44.24;102175.97;5056272;28;20710;-64
2023/06/04 04:00:11;;;;;;;1.60;1.50;;;15.50;61.10;;;18.36;44.22;102178.69;5055998;28;20194;-66
2023/06/04 04:02:39;;;;;;;2.70;1.80;;;15.60;60.90;;;18.42;44.04;102177.13;5056102;28;20184;-66
2023/06/04 04:05:09;;;;;;;2.93;1.80;;;15.60;60.50;;;18.45;43.75;102174.88;5055543;28;20218;-64
2023/06/04 04:07:36;;;;;;;2.00;1.80;;;15.70;60.60;;;18.48;43.98;102169.22;5055904;28;20213;-65
2023/06/04 04:10:05;;;;;;;3.13;2.27;;;15.70;60.30;;;18.53;43.99;102177.47;5055002;28;21600;-63
2023/06/04 04:12:32;;;;;;;2.67;1.77;;;15.80;60.30;;;18.55;43.89;102179.94;5055217;28;20224;-63
2023/06/04 04:14:59;;;;;;;4.00;2.70;;;15.80;60.30;;;18.56;43.42;102171.75;5046399;28;20242;-66
2023/06/04 04:17:26;;;;;;;2.30;2.07;;;15.80;60.30;;;18.55;43.75;102180.75;5055930;28;20186;-65
2023/06/04 04:19:54;;;;;;;4.13;1.93;;;15.70;60.30;;;18.55;44.02;102175.44;5050422;28;20277;-65
2023/06/04 04:22:22;;;;;;;3.60;2.30;;;15.70;60.60;;;18.57;43.72;102176.06;5035255;28;20202;-65
2023/06/04 04:24:49;;;;;;;3.47;2.20;;;15.80;60.60;;;18.60;43.88;102178.34;5035777;28;20226;-64
2023/06/04 04:27:16;;;;;;;2.60;1.53;;;15.80;61.00;;;18.64;44.00;102171.59;5055751;28;20197;-65
2023/06/04 04:29:44;;;;;;;2.63;1.63;;;15.80;61.00;;;18.67;44.08;102173.91;5045244;28;20202;-65
2023/06/04 04:32:11;;;;;;;1.73;1.50;;;15.80;61.20;;;18.72;44.04;102176.81;5035809;28;20726;-65
2023/06/04 04:34:51;;;;;;;3.97;2.00;;;15.90;61.00;;;18.76;43.74;102174.56;5042826;28;20250;-66
2023/06/04 04:37:20;;;;;;;4.17;2.37;;;16.00;60.80;;;18.81;43.80;102169.50;5055384;28;20272;-65
2023/06/04 04:39:51;;;;;;;3.53;2.40;;;15.90;60.70;;;18.81;43.80;102175.66;5055356;28;20220;-64
2023/06/04 04:42:18;;;;;;;4.33;2.43;;;16.00;60.90;;;18.81;43.85;102175.66;5035488;28;20205;-65
2023/06/04 04:44:47;;;;;;;5.20;3.23;;;15.90;60.70;;;18.82;43.64;102176.50;5033322;28;20313;-65
2023/06/04 04:47:15;;;;;;;3.47;2.30;;;15.90;60.60;;;18.78;43.41;102175.19;5034862;28;20191;-66
2023/06/04 04:49:42;;;;;;;5.73;2.80;;;15.90;60.60;;;18.71;43.42;102183.16;5035320;28;20191;-65
2023/06/04 04:52:09;;;;;;;3.67;2.63;;;15.90;60.70;;;18.64;43.52;102178.78;5035191;28;20187;-64
2023/06/04 04:54:36;;;;;;;4.13;3.00;;;15.80;60.70;;;18.55;43.63;102180.75;5034816;28;20221;-66
2023/06/04 04:57:07;;;;;;;4.17;2.77;;;15.70;61.00;;;18.48;43.71;102179.03;5054104;28;20205;-64
2023/06/04 04:59:37;;;;;;;5.47;2.47;;;15.70;61.50;;;18.43;44.37;102179.59;5054777;28;20193;-64
2023/06/04 05:02:04;;;;;;;3.10;2.47;;;15.60;62.00;;;18.44;44.67;102183.91;5054582;28;20204;-65
2023/06/04 05:04:32;;;;;;;4.33;2.20;;;15.60;63.10;;;18.46;44.42;102181.91;5053565;28;20573;-65
2023/06/04 05:06:59;;;;;;;5.40;2.53;;;15.50;62.40;;;18.48;44.79;102173.72;5054727;28;20621;-64
2023/06/04 05:09:26;;;;;;;11.63;2.80;;;15.60;62.60;;;18.51;44.58;102182.16;5054891;28;20281;-64
2023/06/04 05:11:53;;;;;;;5.80;3.00;;;15.60;62.80;;;18.53;44.62;102184.63;5054700;28;20255;-65
2023/06/04 05:14:21;;;;;;;4.13;2.87;;;15.60;62.80;;;18.53;44.54;102188.13;5054349;28;20235;-65
2023/06/04 05:16:48;;;;;;;3.80;2.63;;;15.60;63.20;;;18.53;44.94;102182.81;5054115;28;20288;-65
2023/06/04 05:19:16;;;;;;;4.03;2.97;;;15.60;63.00;;;18.57;45.02;102184.06;5054814;28;20218;-64
2023/06/04 05:21:44;;;;;;;5.20;3.03;;;15.60;63.50;;;18.60;45.01;102191.69;5054393;28;20194;-65
2023/06/04 05:24:11;;;;;;;3.90;2.40;;;15.70;63.50;;;18.65;45.09;102193.78;5054254;28;20224;-65
2023/06/04 05:26:39;;;;;;;3.60;2.40;;;15.70;63.80;;;18.70;45.00;102186.03;5054349;28;20649;-65
2023/06/04 05:29:07;;;;;;;3.80;2.30;;;15.70;63.50;;;18.76;45.20;102193.25;5054339;28;20217;-65
2023/06/04 05:31:36;;;;;;;3.90;2.50;;;15.80;63.80;;;18.86;45.01;102193.75;5050331;28;20655;-64
2023/06/04 05:34:06;;;;;;;4.37;2.70;;;15.90;63.70;;;18.94;44.89;102194.41;5033886;28;20191;-65
2023/06/04 05:36:33;;;;;;;2.70;2.50;;;16.00;63.60;;;18.99;44.79;102198.38;5034487;28;20229;-64
2023/06/04 05:39:00;;;;;;;4.17;2.67;;;16.00;63.40;;;19.02;44.57;102206.81;5034556;28;20668;-63
2023/06/04 05:41:27;;;;;;;5.40;3.03;;;16.00;63.20;;;19.03;44.43;102203.13;5047168;28;20198;-65
2023/06/04 05:43:54;;;;;;;3.63;3.20;;;16.10;63.30;;;19.02;44.38;102203.34;5053606;28;20232;-64
2023/06/04 05:46:22;;;;;;;3.27;2.67;;;16.10;63.40;;;19.01;44.61;102202.50;5053430;28;20300;-64
2023/06/04 05:48:51;;;;;;;4.33;3.10;;;16.10;63.40;;;19.04;44.69;102201.28;5053881;28;20220;-67
2023/06/04 05:51:18;;;;;;;3.70;2.90;;;16.10;63.40;;;19.07;44.58;102201.72;5053990;28;20592;-65
2023/06/04 05:53:45;;;;;;;3.47;2.93;;;16.10;63.60;;;19.09;44.54;102209.56;5053656;28;20281;-67
2023/06/04 05:56:12;;;;;;;4.40;2.70;;;16.10;63.60;;;19.10;44.60;102211.19;5053244;28;20206;-66
2023/06/04 05:58:39;;;;;;;7.10;2.40;;;16.10;63.80;;;19.14;44.80;102207.09;5054003;28;20276;-66
2023/06/04 06:01:07;;;;;;;4.07;2.30;;;16.10;63.70;;;19.22;44.84;102212.31;5047048;28;20277;-69
2023/06/04 06:03:34;;;;;;;4.57;2.90;;;16.20;63.90;;;19.31;44.77;102219.13;5046500;28;20198;-66
2023/06/04 06:06:05;;;;;;;5.70;3.50;;;16.30;63.90;;;19.37;44.64;102215.72;5053631;28;20252;-65
2023/06/04 06:08:32;;;;;;;4.40;2.70;;;16.30;63.90;;;19.41;44.51;102217.81;5043388;28;20625;-66
2023/06/04 06:11:00;;;;;;;3.47;2.57;;;16.40;64.00;;;19.47;44.52;102216.19;5033511;28;20262;-65
2023/06/04 06:13:27;;;;;;;5.30;2.60;;;16.40;63.80;;;19.54;44.62;102217.03;5033433;28;20205;-65
2023/06/04 06:15:55;;;;;;;2.97;2.43;;;16.50;63.50;;;19.63;44.42;102220.41;5042845;28;20211;-65
2023/06/04 06:18:22;;;;;;;7.00;2.40;;;16.60;63.50;;;19.71;44.24;102218.38;5033562;28;20639;-65
2023/06/04 06:20:49;;;;;;;2.93;2.30;;;16.60;63.10;;;19.82;44.07;102222.34;5033524;28;20187;-65
2023/06/04 06:23:19;;;;;;;5.20;3.17;;;16.70;62.90;;;19.91;43.72;102219.31;5033066;28;20206;-66
2023/06/04 06:25:46;;;;;;;3.23;2.50;;;16.80;62.50;;;20.00;43.62;102219.94;5041437;28;20229;-63
2023/06/04 06:28:13;;;;;;;3.07;2.20;;;16.90;62.20;;;20.10;43.31;102215.88;5052997;28;20260;-64
2023/06/04 06:30:40;;;;;;;5.13;2.87;;;17.00;62.10;;;20.23;42.88;102215.09;5036185;28;20199;-65
2023/06/04 06:33:08;;;;;;;5.67;3.20;;;17.10;61.80;;;20.31;43.14;102219.44;5033372;28;20201;-66
2023/06/04 06:35:35;;;;;;;6.87;3.53;;;17.20;61.80;;;20.38;42.57;102214.94;5033478;28;20214;-65
2023/06/04 06:38:02;;;;;;;3.17;2.40;;;17.20;61.40;;;20.42;42.79;102219.69;5033469;28;20190;-65
2023/06/04 06:40:30;;;;;;;2.40;2.13;;;17.30;61.30;;;20.49;42.67;102217.03;5038356;28;20204;-66
2023/06/04 06:42:57;;;;;;;3.10;2.37;;;17.30;61.10;;;20.57;42.72;102217.66;5052050;28;20292;-66
2023/06/04 06:45:24;;;;;;;3.03;2.10;;;17.40;60.90;;;20.67;42.04;102227.97;5053133;28;20223;-65
2023/06/04 06:47:51;;;;;;;4.67;2.73;;;17.50;60.70;;;20.79;41.88;102227.16;5053272;28;20192;-66
2023/06/04 06:50:18;;;;;;;4.10;2.43;;;17.60;60.40;;;20.87;41.96;102224.28;5053537;28;20190;-65
2023/06/04 06:52:45;;;;;;;7.30;2.63;;;17.70;60.10;;;20.94;41.50;102224.28;5053352;28;20182;-66
2023/06/04 06:55:12;;;;;;;5.07;4.13;;;17.80;59.80;;;20.99;41.18;102224.47;5052972;28;20645;-65
2023/06/04 06:57:40;;;;;;;4.83;3.87;;;17.80;59.50;;;21.03;40.90;102224.91;5050177;28;20218;-66
2023/06/04 07:00:09;;;;;;;3.53;2.63;;;17.90;59.50;;;21.07;41.00;102224.31;5032998;28;20555;-66
2023/06/04 07:02:36;;;;;;;4.13;2.43;;;17.90;59.20;;;21.11;41.42;102230.88;5049790;28;20189;-66
2023/06/04 07:05:04;;;;;;;4.77;2.90;;;18.00;59.20;;;21.21;41.09;102235.81;5052451;28;20328;-65
2023/06/04 07:07:31;;;;;;;6.33;3.23;;;18.10;59.20;;;21.27;40.63;102241.19;5052852;28;20210;-65
2023/06/04 07:09:58;;;;;;;2.93;2.30;;;18.10;58.80;;;21.34;40.39;102238.50;5054334;28;20190;-65
2023/06/04 07:12:25;;;;;;;3.40;2.60;;;18.20;58.60;;;21.43;40.59;102232.72;5043473;28;20233;-66
2023/06/04 07:14:53;;;;;;;3.87;2.63;;;18.30;58.50;;;21.55;39.76;102230.22;5056517;28;20209;-65
2023/06/04 07:17:20;;;;;;;3.13;1.93;;;18.40;57.80;;;21.63;39.94;102231.84;5056830;28;20273;-65
2023/06/04 07:19:47;;;;;;;6.67;2.60;;;18.40;57.60;;;21.72;39.47;102234.09;5056650;28;20193;-65
2023/06/04 07:22:15;;;;;;;4.63;2.43;;;18.60;57.50;;;21.85;39.41;102243.94;5056791;28;20593;-65
2023/06/04 07:24:42;;;;;;;2.27;1.80;;;18.60;57.30;;;21.96;39.55;102240.63;5056198;28;20252;-67
2023/06/04 07:27:13;;;;;;;4.93;2.33;;;18.80;57.30;;;22.07;39.42;102239.94;5046843;28;20226;-65
2023/06/04 07:29:43;;;;;;;6.60;2.70;;;18.80;56.70;;;22.13;39.16;102239.91;5036732;28;20273;-64
2023/06/04 07:32:12;;;;;;;6.17;3.20;;;18.90;56.60;;;22.22;38.90;102240.50;5036726;28;20186;-65
2023/06/04 07:34:39;;;;;;;3.73;2.40;;;19.00;56.50;;;22.27;38.79;102238.00;5036364;28;20222;-65
2023/06/04 07:37:07;;;;;;;4.53;2.80;;;19.20;56.40;;;22.35;38.63;102235.06;5036537;28;20600;-65
2023/06/04 07:39:35;;;;;;;2.70;2.50;;;19.20;56.10;;;22.43;38.24;102237.50;5036720;28;20191;-64
2023/06/04 07:42:04;;;;;;;3.77;2.57;;;19.30;55.70;;;22.49;38.18;102231.25;5053356;28;20691;-65
2023/06/04 07:44:31;;;;;;;3.00;2.50;;;19.30;55.50;;;22.55;38.22;102235.78;5054913;28;20299;-64
2023/06/04 07:46:58;;;;;;;2.63;2.10;;;19.40;55.60;;;22.62;38.16;102231.22;5055902;28;20573;-65
2023/06/04 07:49:26;;;;;;;2.93;2.30;;;19.50;55.60;;;22.73;37.97;102227.00;5056029;28;20284;-65
2023/06/04 07:51:53;;;;;;;2.57;2.30;;;19.60;54.90;;;22.82;37.75;102231.88;5055818;28;20192;-65
2023/06/04 07:54:20;;;;;;;2.30;1.47;;;19.70;55.00;;;22.92;37.69;102227.91;5055543;28;20597;-65
2023/06/04 07:56:47;;;;;;;4.57;2.17;;;19.80;55.00;;;22.97;37.62;102225.34;5055250;28;20194;-65
2023/06/04 07:59:14;;;;;;;4.80;2.40;;;19.80;54.70;;;23.02;37.57;102220.16;5054887;28;20200;-66
2023/06/04 08:01:41;;;;;;;6.70;2.30;;;20.00;54.70;;;23.13;37.26;102222.13;5055899;28;20674;-65
2023/06/04 08:04:08;;;;;;;5.80;2.63;;;20.00;54.30;;;23.20;37.16;102217.50;5054994;28;20197;-67
2023/06/04 08:06:39;;;;;;;2.60;2.03;;;20.10;54.30;;;23.31;37.13;102224.84;5055659;28;20224;-65
2023/06/04 08:09:09;;;;;;;4.17;2.60;;;20.20;54.00;;;23.39;36.63;102224.59;5055080;28;20210;-66
2023/06/04 08:11:36;;;;;;;4.77;2.57;;;20.30;53.40;;;23.72;36.09;102225.06;5051462;28;20206;-65
2023/06/04 08:14:03;;;;;;;5.17;3.10;;;20.30;52.80;;;24.49;34.49;102228.78;5055133;28;20280;-64
2023/06/04 08:16:31;;;;;;;4.50;2.37;;;20.50;52.70;;;25.74;33.17;102224.81;5055455;28;20186;-65
2023/06/04 08:19:07;;;;;;;2.43;1.60;;;20.80;52.70;;;27.31;32.05;102219.25;5056039;28;20534;-65
2023/06/04 08:21:44;;;;;;;3.53;1.90;;;21.50;53.00;;;28.73;29.06;102221.72;5055933;28;20292;-65
2023/06/04 08:24:27;;;;;;;4.10;1.90;;;22.40;50.60;;;30.17;27.51;102232.03;5054836;28;20213;-64
2023/06/04 08:27:12;;;;;;;2.90;1.47;;;23.40;49.70;;;31.54;25.45;102226.28;5035471;28;20221;-65
2023/06/04 08:29:50;;;;;;;2.63;1.40;;;24.30;47.00;;;32.45;24.17;102220.34;5035478;28;20611;-64
2023/06/04 08:32:37;;;;;;;2.77;1.73;;;25.20;44.30;;;33.51;23.80;102227.53;5048766;28;20198;-65
2023/06/04 08:35:09;;;;;;;3.77;2.20;;;26.10;41.60;;;34.34;22.42;102220.41;5035288;28;20617;-64
2023/06/04 08:37:38;;;;;;;2.47;1.60;;;26.90;39.90;;;35.20;21.35;102235.38;5035258;28;20231;-65
2023/06/04 08:40:08;;;;;;;6.00;2.00;;;27.60;37.50;;;36.13;20.47;102236.72;5052871;28;20198;-66
2023/06/04 08:42:42;;;;;;;1.70;1.60;;;28.30;36.20;;;36.97;18.57;102230.25;5053974;28;20285;-66
2023/06/04 08:45:15;;;;;;;2.40;1.73;;;28.90;32.90;;;37.61;17.75;102231.47;5054790;28;20271;-66
2023/06/04 08:47:48;;;;;;;2.13;1.53;;;29.50;31.30;;;38.09;17.43;102225.88;5055136;28;20186;-66
2023/06/04 08:50:19;;;;;;;2.90;1.73;;;30.00;29.70;;;38.56;16.51;102238.66;5055126;28;20281;-64
2023/06/04 08:52:52;;;;;;;2.17;1.80;;;30.40;29.30;;;39.01;15.88;102229.97;5054566;28;20665;-65
2023/06/04 08:55:19;;;;;;;2.43;1.60;;;30.80;27.90;;;39.35;16.19;102232.59;5055097;28;20226;-65
2023/06/04 08:57:50;;;;;;;3.47;2.30;;;31.20;28.30;;;39.70;15.78;102231.25;5055411;28;20197;-66
2023/06/04 09:00:19;;;;;;;2.63;1.83;;;31.50;27.00;;;39.95;15.52;102237.75;5053337;28;20261;-65
2023/06/04 09:02:47;;;;;;;2.38;2.05;;;31.80;27.40;;;40.28;15.23;102230.34;5051877;28;20205;-67
2023/06/04 09:05:20;;;;;;;2.92;2.08;;;32.20;26.60;;;40.60;15.07;102231.50;5054585;28;20229;-65
2023/06/04 09:07:54;;;;;;;1.80;1.52;;;32.50;25.30;;;40.78;13.45;102226.59;5054235;28;20256;-67
2023/06/04 09:10:25;;;;;;;1.73;1.63;;;32.70;24.20;;;40.98;13.95;102226.56;5053619;28;20189;-65
2023/06/04 09:12:56;;;;;;;1.75;1.60;;;33.00;24.00;;;41.34;13.41;102223.00;5054046;28;20178;-64
2023/06/04 09:15:23;;;;;;;3.17;1.90;;;33.20;24.50;;;41.73;13.22;102224.22;5040565;28;20276;-65
2023/06/04 09:17:50;;;;;;;2.85;1.67;;;33.50;23.20;;;42.12;13.14;102225.41;5034873;28;20199;-65
2023/06/04 09:20:21;;;;;;;2.65;1.70;;;33.80;23.50;;;42.54;12.33;102231.31;5033865;28;20195;-64
2023/06/04 09:22:50;;;;;;;2.17;1.85;;;34.00;22.70;;;42.84;12.08;102229.75;5034157;28;20709;-65
2023/06/04 09:25:22;;;;;;;1.92;1.83;;;34.10;22.20;;;42.96;11.91;102233.25;5038491;28;20288;-66
2023/06/04 09:27:49;;;;;;;2.28;1.95;;;34.30;21.70;;;42.91;12.00;102232.75;5053517;28;20210;-65
2023/06/04 09:30:17;;;;;;;3.53;1.92;;;34.40;21.70;;;43.18;11.57;102237.38;5054021;28;20192;-65
2023/06/04 09:32:44;;;;;;;1.85;1.70;;;34.50;21.70;;;43.48;11.66;102238.50;5053557;28;20225;-65
2023/06/04 09:35:14;;;;;;;2.22;1.65;;;34.70;22.00;;;43.75;10.84;102237.56;5053695;28;20263;-66
2023/06/04 09:37:43;;;;;;;3.50;1.83;;;35.00;21.40;;;43.92;11.29;102235.50;5054875;28;20662;-66
2023/06/04 09:40:12;;;;;;;3.95;2.10;;;35.10;21.20;;;43.91;11.07;102233.91;5054644;28;20190;-66
2023/06/04 09:42:43;;;;;;;1.45;1.35;;;35.20;20.50;;;44.09;11.80;102240.66;5049274;28;20639;-65
2023/06/04 09:45:11;;;;;;;1.80;1.70;;;35.30;21.40;;;44.25;10.86;102244.97;5033716;28;20279;-65
2023/06/04 09:47:40;;;;;;;3.83;1.75;;;35.40;20.70;;;44.23;10.66;102243.72;5033686;28;20321;-64
2023/06/04 09:50:09;;;;;;;1.73;1.40;;;35.60;20.90;;;44.25;10.86;102233.84;5033545;28;20219;-65
2023/06/04 09:52:37;;;;;;;2.22;1.83;;;35.70;20.40;;;44.31;11.24;102243.50;5035763;28;20233;-65
2023/06/04 09:55:22;;;;;;;2.45;2.10;;;35.80;20.60;;;44.35;10.58;102238.00;5053251;28;20210;-65
2023/06/04 09:57:51;;;;;;;1.90;1.80;;;35.80;19.90;;;44.03;10.35;102231.78;5053765;28;20177;-65
2023/06/04 10:00:23;;;;;;;2.25;1.70;;;35.70;19.20;;;43.85;10.39;102230.63;5052616;28;20213;-64
2023/06/04 10:02:56;;;;;;;2.10;1.73;;;35.70;19.40;;;44.05;10.55;102234.22;5052841;28;20269;-64
2023/06/04 10:05:25;;;;;;;1.77;1.63;;;35.70;19.90;;;43.83;10.30;102232.97;5053364;28;20213;-65
2023/06/04 10:07:53;;;;;;;2.33;1.70;;;35.60;18.70;;;43.21;10.38;102228.34;5052733;28;20267;-64
2023/06/04 10:10:26;;;;;;;2.15;1.95;;;35.20;18.90;;;43.10;10.57;102233.59;5052930;28;20225;-64
2023/06/04 10:13:02;;;;;;;2.88;2.30;;;35.10;19.20;;;43.28;10.57;102231.28;5052508;28;20212;-65
2023/06/04 10:15:32;;;;;;;2.25;1.70;;;35.10;19.50;;;43.50;10.51;102235.38;5041216;28;20298;-66
2023/06/04 10:17:59;;;;;;;1.70;1.60;;;35.20;19.50;;;43.56;10.65;102229.16;5053347;28;20630;-65
2023/06/04 10:20:27;;;;;;;2.20;1.70;;;35.10;19.20;;;43.67;9.98;102230.19;5041046;28;20738;-66